Time;durP1;ratioP1;P1;durP2;ratioP2;P2;SDS_P1;SDS_P2;PMS_P1;PMS_P2;Temp;Humidity;BMP_temperature;BMP_pressure;BME280_temperature;BME280_humidity;BME280_pressure;Samples;Min_cycle;Max_cycle;Signal;HPM_P1;HPM_P2
2023/03/26 00:00:52;;;;;;;3.40;1.50;;;7.90;99.90;;;;;;5092301;28;20481;-53
2023/03/26 00:03:19;;;;;;;1.23;1.10;;;8.00;99.90;;;;;;5090847;28;20499;-52
2023/03/26 00:05:46;;;;;;;2.30;0.90;;;8.00;99.90;;;;;;5089671;28;20938;-52
2023/03/26 00:08:14;;;;;;;2.90;1.60;;;8.00;99.90;;;;;;5091357;28;20464;-52
2023/03/26 00:10:41;;;;;;;1.47;1.10;;;8.00;99.90;;;;;;5091893;28;20480;-51
2023/03/26 00:13:08;;;;;;;4.10;1.00;;;8.00;99.90;;;;;;5095942;28;20452;-51
2023/03/26 00:15:37;;;;;;;2.60;1.10;;;8.00;99.90;;;;;;5095735;28;20499;-54
2023/03/26 00:18:04;;;;;;;6.20;1.00;;;8.10;99.90;;;;;;5089616;28;20482;-53
2023/03/26 00:20:32;;;;;;;3.23;1.10;;;8.10;99.90;;;;;;5090692;28;20459;-55
2023/03/26 00:23:00;;;;;;;1.03;0.93;;;8.00;99.90;;;;;;5102401;28;20549;-53
2023/03/26 00:25:27;;;;;;;2.10;1.10;;;8.00;99.90;;;;;;5082275;28;20488;-52
2023/03/26 00:27:53;;;;;;;4.17;1.47;;;8.10;99.90;;;;;;5091539;28;20476;-54
2023/03/26 00:30:20;;;;;;;3.13;1.83;;;8.10;82.30;;;;;;5091854;28;20440;-52
2023/03/26 00:32:48;;;;;;;2.40;1.33;;;8.10;79.70;;;;;;5092276;28;20476;-52
2023/03/26 00:35:14;;;;;;;1.47;0.80;;;8.10;78.30;;;;;;5094258;28;20522;-53
2023/03/26 00:37:42;;;;;;;1.50;1.00;;;8.10;99.90;;;;;;5095461;28;20465;-52
2023/03/26 00:40:09;;;;;;;4.43;1.40;;;8.10;81.50;;;;;;5090836;28;20601;-52
2023/03/26 00:42:36;;;;;;;3.83;1.53;;;8.10;99.90;;;;;;5091743;28;20428;-53
2023/03/26 00:45:03;;;;;;;1.03;0.93;;;8.10;99.90;;;;;;5081967;28;21021;-53
2023/03/26 00:47:30;;;;;;;1.63;1.00;;;8.00;99.90;;;;;;5098897;28;20518;-53
2023/03/26 00:49:58;;;;;;;5.73;1.00;;;7.80;99.90;;;;;;5100112;28;20467;-52
2023/03/26 00:52:27;;;;;;;3.03;1.37;;;7.60;99.90;;;;;;5091761;28;20520;-52
2023/03/26 00:54:54;;;;;;;3.37;1.43;;;7.50;99.90;;;;;;5082405;28;20491;-52
2023/03/26 00:57:21;;;;;;;1.97;1.30;;;7.40;98.50;;;;;;5087844;28;20483;-53
2023/03/26 00:59:48;;;;;;;2.33;1.43;;;7.40;80.60;;;;;;5097512;28;20446;-52
2023/03/26 01:02:17;;;;;;;5.83;1.50;;;7.30;79.60;;;;;;5094199;28;20482;-53
2023/03/26 01:04:46;;;;;;;1.00;1.00;;;7.30;75.10;;;;;;5086974;28;21015;-53
2023/03/26 01:07:20;;;;;;;3.00;1.23;;;7.30;73.40;;;;;;5077917;28;20491;-52
2023/03/26 01:09:49;;;;;;;3.73;1.50;;;7.30;73.40;;;;;;5071479;28;20452;-52
2023/03/26 01:12:21;;;;;;;6.30;1.27;;;7.20;75.30;;;;;;5090264;28;20480;-53
2023/03/26 01:14:48;;;;;;;3.73;1.23;;;7.30;77.20;;;;;;5081233;28;20572;-53
2023/03/26 01:17:16;;;;;;;1.63;1.40;;;7.40;99.90;;;;;;5087076;28;20514;-52
2023/03/26 01:19:48;;;;;;;2.50;1.03;;;7.40;99.90;;;;;;5071221;28;20531;-52
2023/03/26 01:22:19;;;;;;;3.20;1.40;;;7.40;99.90;;;;;;5071061;28;20438;-52
2023/03/26 01:24:51;;;;;;;8.30;1.67;;;7.50;99.90;;;;;;5070861;28;20449;-53
2023/03/26 01:27:27;;;;;;;0.90;0.80;;;7.40;99.90;;;;;;5080491;28;20448;-53
2023/03/26 01:29:55;;;;;;;3.70;1.43;;;7.40;99.90;;;;;;5095062;28;20444;-53
2023/03/26 01:32:42;;;;;;;1.53;1.40;;;7.50;99.90;;;;;;5095321;28;21020;-53
2023/03/26 01:35:23;;;;;;;1.80;1.10;;;7.50;99.90;;;;;;5101316;28;20483;-53
2023/03/26 01:38:09;;;;;;;2.07;1.13;;;7.50;99.90;;;;;;5112491;28;20440;-53
2023/03/26 01:40:42;;;;;;;5.27;2.03;;;7.50;99.90;;;;;;5104344;28;20526;-52
2023/03/26 01:43:13;;;;;;;2.30;1.40;;;7.60;99.90;;;;;;5092833;28;20436;-51
2023/03/26 01:45:44;;;;;;;0.90;0.90;;;7.50;99.90;;;;;;5089608;28;20460;-52
2023/03/26 01:48:12;;;;;;;4.43;1.53;;;7.50;99.90;;;;;;5093508;28;21022;-52
2023/03/26 01:50:39;;;;;;;1.10;1.00;;;7.50;99.90;;;;;;5090557;28;20502;-52
2023/03/26 01:53:07;;;;;;;1.30;1.10;;;7.50;99.90;;;;;;5094145;28;20931;-53
2023/03/26 01:55:42;;;;;;;2.23;1.00;;;7.40;99.90;;;;;;5089648;28;20484;-52
2023/03/26 01:58:17;;;;;;;0.97;0.90;;;7.50;99.90;;;;;;5092864;28;20547;-51
2023/03/26 02:00:52;;;;;;;4.87;1.40;;;7.40;99.90;;;;;;5094438;28;20849;-52
2023/03/26 02:03:26;;;;;;;7.80;2.63;;;7.40;99.90;;;;;;5094362;28;20474;-52
2023/03/26 02:05:57;;;;;;;1.47;1.10;;;7.40;99.90;;;;;;5083422;28;20488;-52
2023/03/26 02:08:30;;;;;;;4.20;1.27;;;7.50;99.90;;;;;;5091780;28;20521;-53
2023/03/26 02:11:03;;;;;;;3.33;1.20;;;7.50;99.90;;;;;;5102324;28;20444;-52
2023/03/26 02:13:30;;;;;;;1.20;1.03;;;7.40;99.90;;;;;;5114118;28;20447;-51
2023/03/26 02:15:59;;;;;;;1.40;1.10;;;7.40;99.90;;;;;;5092017;28;20493;-52
2023/03/26 02:18:35;;;;;;;3.23;1.20;;;7.40;99.90;;;;;;5093193;28;20455;-51
2023/03/26 02:21:02;;;;;;;2.87;1.40;;;7.40;99.90;;;;;;5096865;28;20555;-52
2023/03/26 02:23:34;;;;;;;3.30;1.40;;;7.40;99.90;;;;;;5086934;28;20556;-52
2023/03/26 02:26:04;;;;;;;1.37;1.27;;;7.40;99.90;;;;;;5086675;28;20538;-52
2023/03/26 02:28:31;;;;;;;4.00;1.90;;;7.40;99.90;;;;;;5093733;28;20441;-53
2023/03/26 02:31:00;;;;;;;1.83;1.30;;;7.40;99.90;;;;;;5093799;28;20525;-53
2023/03/26 02:33:27;;;;;;;2.93;1.20;;;7.40;99.90;;;;;;5090438;28;20527;-54
2023/03/26 02:35:58;;;;;;;4.27;1.37;;;7.40;99.90;;;;;;5092734;28;20533;-53
2023/03/26 02:38:25;;;;;;;3.03;1.40;;;7.50;99.90;;;;;;5074325;28;20462;-52
2023/03/26 02:40:52;;;;;;;3.00;1.20;;;7.50;99.90;;;;;;5074284;28;20457;-52
2023/03/26 02:43:20;;;;;;;2.20;1.20;;;7.50;99.90;;;;;;5097939;28;20825;-52
2023/03/26 02:45:46;;;;;;;3.97;1.40;;;7.50;99.90;;;;;;5104460;28;20472;-53
2023/03/26 02:48:13;;;;;;;3.70;1.10;;;7.50;99.90;;;;;;5109126;28;20497;-53
2023/03/26 02:50:40;;;;;;;3.70;1.50;;;7.50;99.90;;;;;;5112704;28;20541;-53
2023/03/26 02:53:07;;;;;;;3.40;1.20;;;7.40;99.90;;;;;;5090140;28;20488;-54
2023/03/26 02:55:34;;;;;;;1.03;1.00;;;7.40;99.90;;;;;;5091908;28;20480;-52
2023/03/26 02:58:00;;;;;;;1.90;1.30;;;7.40;99.90;;;;;;5094380;28;21216;-52
2023/03/26 03:00:28;;;;;;;1.57;1.30;;;7.40;99.90;;;;;;5104995;28;20470;-52
2023/03/26 03:02:56;;;;;;;4.40;1.30;;;7.40;99.90;;;;;;5083193;28;20456;-52
2023/03/26 03:05:25;;;;;;;4.57;1.80;;;7.40;99.90;;;;;;5095051;28;20537;-53
2023/03/26 03:07:51;;;;;;;2.97;1.33;;;7.40;99.90;;;;;;5096551;28;20444;-53
2023/03/26 03:10:20;;;;;;;3.47;1.83;;;7.40;99.90;;;;;;5087614;28;20458;-53
2023/03/26 03:12:47;;;;;;;4.20;1.20;;;7.40;99.90;;;;;;5092679;28;20550;-52
2023/03/26 03:15:14;;;;;;;3.73;1.20;;;7.40;99.90;;;;;;5095297;28;20530;-52
2023/03/26 03:17:42;;;;;;;3.20;1.70;;;7.40;99.90;;;;;;5104537;28;20435;-52
2023/03/26 03:20:09;;;;;;;5.50;1.40;;;7.40;99.90;;;;;;5092588;28;20453;-52
2023/03/26 03:22:36;;;;;;;2.83;1.20;;;7.40;99.90;;;;;;5099269;28;20464;-52
2023/03/26 03:25:03;;;;;;;3.33;1.30;;;7.40;99.90;;;;;;5092584;28;20485;-52
2023/03/26 03:27:30;;;;;;;3.83;1.73;;;7.40;99.90;;;;;;5072220;28;20450;-52
2023/03/26 03:29:57;;;;;;;4.87;1.80;;;7.40;99.90;;;;;;5085276;28;20461;-52
2023/03/26 03:32:25;;;;;;;1.73;1.00;;;7.50;99.90;;;;;;5097567;28;20511;-52
2023/03/26 03:34:53;;;;;;;2.83;1.70;;;7.50;99.90;;;;;;5103477;28;20541;-53
2023/03/26 03:37:20;;;;;;;2.30;1.70;;;7.40;99.90;;;;;;5113223;28;20496;-52
2023/03/26 03:39:46;;;;;;;1.67;1.33;;;7.50;99.90;;;;;;5088455;28;21000;-53
2023/03/26 03:42:13;;;;;;;2.43;1.27;;;7.40;99.90;;;;;;5081562;28;20877;-53
2023/03/26 03:44:39;;;;;;;4.80;1.97;;;7.40;99.90;;;;;;5077277;28;20973;-53
2023/03/26 03:47:06;;;;;;;2.23;1.60;;;7.40;99.90;;;;;;5103553;28;21004;-52
2023/03/26 03:49:33;;;;;;;3.93;1.50;;;7.40;99.90;;;;;;5097109;28;20529;-52
2023/03/26 03:52:01;;;;;;;2.93;1.40;;;7.50;99.90;;;;;;5092065;28;20821;-52
2023/03/26 03:54:28;;;;;;;2.70;1.30;;;7.40;99.90;;;;;;5091506;28;20488;-53
2023/03/26 03:56:54;;;;;;;3.53;1.63;;;7.50;99.90;;;;;;5092105;28;20543;-52
2023/03/26 03:59:21;;;;;;;3.37;1.63;;;7.50;99.90;;;;;;5080936;28;20518;-53
2023/03/26 04:01:49;;;;;;;5.20;1.37;;;7.40;99.90;;;;;;5088945;28;20935;-52
2023/03/26 04:04:16;;;;;;;3.33;1.50;;;7.50;99.90;;;;;;5103195;28;20518;-53
2023/03/26 04:06:42;;;;;;;2.77;1.60;;;7.50;99.90;;;;;;5112309;28;20463;-52
2023/03/26 04:09:10;;;;;;;7.57;1.93;;;7.50;99.90;;;;;;5094897;28;20875;-52
2023/03/26 04:11:37;;;;;;;3.40;2.00;;;7.50;99.90;;;;;;5084281;28;20824;-53
2023/03/26 04:14:03;;;;;;;1.93;1.50;;;7.50;99.90;;;;;;5098875;28;20467;-53
2023/03/26 04:16:30;;;;;;;6.73;2.20;;;7.50;99.90;;;;;;5091692;28;20928;-52
2023/03/26 04:18:57;;;;;;;3.23;1.60;;;7.50;99.90;;;;;;5079348;28;20461;-52
2023/03/26 04:21:25;;;;;;;3.33;1.83;;;7.50;99.90;;;;;;5092158;28;20449;-51
2023/03/26 04:23:53;;;;;;;3.60;1.60;;;7.50;99.90;;;;;;5091366;28;20457;-52
2023/03/26 04:26:21;;;;;;;3.53;1.67;;;7.50;99.90;;;;;;5091633;28;20999;-53
2023/03/26 04:28:52;;;;;;;4.00;1.53;;;7.50;99.90;;;;;;5087534;28;20452;-52
2023/03/26 04:31:22;;;;;;;8.50;2.00;;;7.50;99.90;;;;;;5090981;28;20548;-53
2023/03/26 04:33:53;;;;;;;5.83;1.80;;;7.50;99.90;;;;;;5090479;28;20492;-52
2023/03/26 04:36:25;;;;;;;5.20;1.73;;;7.50;99.90;;;;;;5071441;28;20542;-57
2023/03/26 04:38:53;;;;;;;3.27;1.60;;;7.50;99.90;;;;;;5072396;28;20497;-53
2023/03/26 04:41:25;;;;;;;1.67;1.27;;;7.50;99.90;;;;;;5089028;28;20551;-52
2023/03/26 04:43:51;;;;;;;3.37;1.80;;;7.50;99.90;;;;;;5098015;28;20441;-52
2023/03/26 04:46:20;;;;;;;3.40;1.60;;;7.50;99.90;;;;;;5111947;28;20463;-53
2023/03/26 04:48:47;;;;;;;2.93;1.50;;;7.50;99.90;;;;;;5104604;28;20464;-52
2023/03/26 04:51:17;;;;;;;3.40;1.47;;;7.50;99.90;;;;;;5085133;28;20465;-53
2023/03/26 04:53:47;;;;;;;2.73;1.40;;;7.50;99.90;;;;;;5091281;28;20529;-52
2023/03/26 04:56:28;;;;;;;4.80;1.83;;;7.40;99.90;;;;;;5090954;28;20549;-52
2023/03/26 04:58:58;;;;;;;1.83;1.20;;;7.40;99.90;;;;;;5085099;28;20461;-52
2023/03/26 05:01:27;;;;;;;4.07;1.37;;;7.40;99.90;;;;;;5094650;28;20880;-52
2023/03/26 05:03:53;;;;;;;5.10;1.97;;;7.40;99.90;;;;;;5094640;28;20444;-52
2023/03/26 05:06:20;;;;;;;4.73;2.00;;;7.40;99.90;;;;;;5096662;28;20464;-54
2023/03/26 05:08:47;;;;;;;4.97;1.70;;;7.40;99.90;;;;;;5095680;28;20821;-52
2023/03/26 05:11:14;;;;;;;3.30;2.00;;;7.40;99.90;;;;;;5091900;28;21021;-54
2023/03/26 05:13:42;;;;;;;7.70;1.57;;;7.40;99.90;;;;;;5106276;28;20475;-53
2023/03/26 05:16:10;;;;;;;4.23;2.00;;;7.30;99.90;;;;;;5115318;28;20470;-52
2023/03/26 05:18:37;;;;;;;6.13;1.90;;;7.30;99.90;;;;;;5096033;28;20506;-52
2023/03/26 05:21:04;;;;;;;3.90;1.60;;;7.30;99.90;;;;;;5095343;28;20445;-53
2023/03/26 05:23:31;;;;;;;2.23;1.27;;;7.20;99.90;;;;;;5094759;28;20444;-53
2023/03/26 05:25:57;;;;;;;3.13;1.40;;;7.20;87.10;;;;;;5093061;28;20860;-53
2023/03/26 05:28:25;;;;;;;3.40;2.90;;;7.20;77.90;;;;;;5095538;28;20461;-53
2023/03/26 05:30:54;;;;;;;2.30;1.53;;;7.10;73.60;;;;;;5094954;28;20445;-57
2023/03/26 05:33:22;;;;;;;2.10;1.37;;;7.10;70.50;;;;;;5094825;28;20483;-52
2023/03/26 05:35:59;;;;;;;2.70;1.43;;;7.10;66.30;;;;;;5093849;28;21009;-52
2023/03/26 05:38:27;;;;;;;5.07;1.50;;;7.10;61.70;;;;;;5092334;28;20551;-53
2023/03/26 05:40:57;;;;;;;2.03;1.43;;;7.10;59.50;;;;;;5099995;28;20876;-53
2023/03/26 05:43:24;;;;;;;3.80;1.50;;;7.00;61.80;;;;;;5091458;28;20483;-53
2023/03/26 05:45:51;;;;;;;1.40;1.30;;;7.10;60.60;;;;;;5073828;28;20556;-53
2023/03/26 05:48:20;;;;;;;3.27;1.23;;;7.10;59.30;;;;;;5088420;28;20957;-52
2023/03/26 05:50:48;;;;;;;4.70;1.43;;;7.10;61.10;;;;;;5094597;28;20497;-53
2023/03/26 05:53:15;;;;;;;1.57;1.27;;;7.10;63.40;;;;;;5094486;28;20533;-53
2023/03/26 05:55:44;;;;;;;3.20;1.37;;;7.10;62.30;;;;;;5099915;28;21075;-53
2023/03/26 05:58:11;;;;;;;2.77;1.30;;;7.20;61.60;;;;;;5087262;28;20525;-54
2023/03/26 06:00:38;;;;;;;1.50;1.07;;;7.10;91.20;;;;;;5090494;28;20477;-53
2023/03/26 06:03:04;;;;;;;1.23;1.10;;;7.10;99.90;;;;;;5074124;28;20450;-54
2023/03/26 06:05:36;;;;;;;1.63;1.00;;;7.10;99.90;;;;;;5073304;28;20990;-53
2023/03/26 06:08:02;;;;;;;2.77;1.07;;;7.10;99.90;;;;;;5081290;28;20457;-53
2023/03/26 06:10:29;;;;;;;3.83;1.50;;;7.10;99.90;;;;;;5100245;28;20491;-53
2023/03/26 06:12:56;;;;;;;2.77;1.17;;;7.10;99.90;;;;;;5114062;28;21023;-53
2023/03/26 06:15:22;;;;;;;5.53;1.40;;;7.10;99.90;;;;;;5113394;28;20475;-53
2023/03/26 06:17:49;;;;;;;2.30;1.53;;;7.00;99.90;;;;;;5091103;28;20468;-53
2023/03/26 06:20:16;;;;;;;2.13;1.40;;;7.10;99.90;;;;;;5093728;28;20510;-54
2023/03/26 06:22:44;;;;;;;3.30;1.43;;;7.20;99.90;;;;;;5091784;28;20460;-54
2023/03/26 06:25:11;;;;;;;2.53;1.00;;;7.20;99.90;;;;;;5092940;28;20468;-54
2023/03/26 06:27:37;;;;;;;2.97;1.60;;;7.20;99.90;;;;;;5092828;28;20566;-54
2023/03/26 06:30:05;;;;;;;1.33;0.90;;;7.20;99.90;;;;;;5093527;28;20441;-54
2023/03/26 06:32:31;;;;;;;2.50;1.00;;;7.20;99.90;;;;;;5093561;28;20529;-53
2023/03/26 06:34:58;;;;;;;3.37;1.10;;;7.30;99.90;;;;;;5074145;28;20481;-53
2023/03/26 06:37:25;;;;;;;2.33;1.10;;;7.50;99.90;;;;;;5075405;28;20942;-52
2023/03/26 06:39:53;;;;;;;5.80;1.57;;;7.50;99.90;;;;;;5091184;28;20441;-53
2023/03/26 06:42:20;;;;;;;7.33;1.33;;;7.50;99.90;;;;;;5093566;28;20468;-53
2023/03/26 06:44:46;;;;;;;1.83;1.20;;;7.60;99.90;;;;;;5092441;28;20460;-58
2023/03/26 06:47:13;;;;;;;4.03;1.47;;;7.60;99.90;;;;;;5092317;28;20452;-58
2023/03/26 06:49:40;;;;;;;7.77;1.60;;;7.60;99.90;;;;;;5093203;28;20437;-57
2023/03/26 06:52:07;;;;;;;3.43;1.30;;;7.70;99.90;;;;;;5088823;28;20953;-58
2023/03/26 06:54:34;;;;;;;15.13;1.87;;;7.70;99.90;;;;;;5090115;28;20485;-58
2023/03/26 06:57:01;;;;;;;3.33;1.50;;;7.60;99.90;;;;;;5104452;28;20452;-57
2023/03/26 06:59:28;;;;;;;2.87;1.40;;;7.50;99.90;;;;;;5087254;28;20519;-58
2023/03/26 07:01:55;;;;;;;3.47;1.67;;;7.70;99.90;;;;;;5093166;28;20502;-63
2023/03/26 07:04:21;;;;;;;4.00;2.43;;;7.70;99.90;;;;;;5092299;28;20448;-58
2023/03/26 07:06:48;;;;;;;4.00;1.37;;;7.90;99.90;;;;;;5099283;28;20537;-58
2023/03/26 07:09:15;;;;;;;3.90;2.10;;;8.10;27.50;;;;;;5085361;28;20456;-58
2023/03/26 07:11:41;;;;;;;2.63;1.17;;;8.40;84.60;;;;;;5091834;28;20445;-58
2023/03/26 07:14:09;;;;;;;4.53;2.03;;;8.40;49.10;;;;;;5091949;28;20886;-58
2023/03/26 07:16:36;;;;;;;2.70;1.10;;;8.40;65.00;;;;;;5092810;28;20468;-58
2023/03/26 07:19:02;;;;;;;3.63;1.40;;;8.30;60.60;;;;;;5091943;28;20460;-58
2023/03/26 07:21:29;;;;;;;2.03;1.20;;;8.30;95.40;;;;;;5091749;28;20490;-57
2023/03/26 07:23:56;;;;;;;5.20;1.07;;;8.30;99.90;;;;;;5103458;28;20450;-58
2023/03/26 07:26:30;;;;;;;3.77;1.30;;;8.20;99.90;;;;;;5097281;28;20872;-57
2023/03/26 07:29:01;;;;;;;2.87;1.40;;;8.30;99.90;;;;;;5088278;28;20460;-57
2023/03/26 07:31:37;;;;;;;2.70;1.30;;;8.40;99.90;;;;;;5087149;28;20461;-57
2023/03/26 07:34:12;;;;;;;4.20;1.60;;;8.40;99.90;;;;;;5090173;28;20495;-58
2023/03/26 07:36:45;;;;;;;2.67;1.10;;;8.60;99.90;;;;;;5088920;28;20485;-58
2023/03/26 07:39:22;;;;;;;2.40;1.70;;;8.70;99.90;;;;;;5089935;28;20463;-57
2023/03/26 07:41:54;;;;;;;4.40;1.40;;;8.70;99.90;;;;;;5092421;28;20457;-57
2023/03/26 07:44:39;;;;;;;7.03;1.50;;;8.90;45.60;;;;;;5091405;28;20472;-58
2023/03/26 07:47:24;;;;;;;8.70;1.73;;;8.70;41.40;;;;;;5097649;28;20958;-58
2023/03/26 07:49:53;;;;;;;8.20;1.60;;;8.80;48.20;;;;;;5084649;28;20464;-58
2023/03/26 07:52:20;;;;;;;4.43;1.40;;;8.80;55.40;;;;;;5092019;28;20463;-59
2023/03/26 07:54:47;;;;;;;5.23;2.73;;;8.80;50.50;;;;;;5082661;28;20481;-57
2023/03/26 07:57:21;;;;;;;10.10;2.47;;;8.90;38.80;;;;;;5106546;28;20467;-57
2023/03/26 07:59:53;;;;;;;5.27;1.60;;;8.90;54.80;;;;;;5109628;28;20481;-58
2023/03/26 08:02:46;;;;;;;3.90;1.30;;;8.60;41.40;;;;;;5094199;28;20456;-58
2023/03/26 08:05:24;;;;;;;2.43;1.67;;;8.50;50.10;;;;;;5087850;28;20461;-58
2023/03/26 08:08:08;;;;;;;5.17;1.40;;;8.40;48.90;;;;;;5092337;28;20444;-58
2023/03/26 08:10:40;;;;;;;7.43;1.90;;;8.20;30.70;;;;;;5089655;28;20549;-58
2023/03/26 08:13:20;;;;;;;6.90;1.80;;;8.40;25.20;;;;;;5093795;28;20515;-58
2023/03/26 08:15:56;;;;;;;5.63;1.80;;;8.40;36.50;;;;;;5092047;28;20464;-58
2023/03/26 08:18:35;;;;;;;2.60;1.80;;;8.30;34.10;;;;;;5099198;28;20460;-58
2023/03/26 08:21:06;;;;;;;5.10;1.80;;;8.30;20.20;;;;;;5082288;28;20452;-58
2023/03/26 08:23:38;;;;;;;3.87;1.77;;;8.20;23.60;;;;;;5090270;28;20443;-58
2023/03/26 08:26:11;;;;;;;6.00;2.10;;;8.20;83.10;;;;;;5091170;28;20476;-58
2023/03/26 08:28:49;;;;;;;7.07;1.47;;;8.20;99.90;;;;;;5091860;28;21003;-59
2023/03/26 08:31:18;;;;;;;6.70;1.67;;;8.30;99.90;;;;;;5091035;28;21015;-58
2023/03/26 08:33:46;;;;;;;3.50;1.50;;;8.20;99.90;;;;;;5090181;28;20481;-57
2023/03/26 08:36:12;;;;;;;2.33;1.47;;;8.40;99.90;;;;;;5098177;28;20523;-58
2023/03/26 08:38:39;;;;;;;3.93;1.70;;;8.50;99.90;;;;;;5117153;28;20509;-58
2023/03/26 08:41:36;;;;;;;2.87;1.90;;;8.60;99.90;;;;;;5109703;28;20468;-58
2023/03/26 08:44:39;;;;;;;3.13;1.50;;;8.60;99.90;;;;;;5093826;28;20809;-58
2023/03/26 08:47:45;;;;;;;4.93;1.70;;;8.50;99.90;;;;;;5100311;28;20459;-58
2023/03/26 08:50:42;;;;;;;7.67;1.87;;;8.40;99.90;;;;;;5099905;28;20439;-57
2023/03/26 08:53:41;;;;;;;3.73;1.87;;;8.50;99.90;;;;;;5093427;28;20460;-59
2023/03/26 08:56:15;;;;;;;3.23;1.63;;;8.30;99.90;;;;;;5095563;28;20461;-58
2023/03/26 08:58:59;;;;;;;4.60;2.17;;;8.30;99.90;;;;;;5089148;28;20461;-58
2023/03/26 09:01:54;;;;;;;7.23;1.90;;;8.20;99.90;;;;;;5087341;28;20464;-58
2023/03/26 09:04:40;;;;;;;3.63;1.60;;;8.00;99.90;;;;;;5095810;28;20864;-59
2023/03/26 09:07:54;;;;;;;5.13;1.63;;;8.00;99.90;;;;;;5115110;28;20444;-58
2023/03/26 09:10:48;;;;;;;6.10;2.10;;;8.00;99.90;;;;;;5106739;28;20460;-58
2023/03/26 09:13:51;;;;;;;5.73;1.90;;;8.10;99.90;;;;;;5086502;28;20440;-58
2023/03/26 09:17:02;;;;;;;3.00;1.53;;;8.20;99.90;;;;;;5085792;28;20533;-58
2023/03/26 09:20:11;;;;;;;13.57;2.07;;;8.10;99.90;;;;;;5076635;28;20457;-58
2023/03/26 09:22:58;;;;;;;5.33;2.00;;;8.10;99.90;;;;;;5089946;28;20444;-59
2023/03/26 09:26:00;;;;;;;3.33;2.00;;;8.10;99.90;;;;;;5076262;28;20484;-58
2023/03/26 09:29:04;;;;;;;6.00;1.83;;;8.20;99.90;;;;;;5090723;28;21001;-57
2023/03/26 09:31:56;;;;;;;1.90;1.30;;;8.10;99.90;;;;;;5093795;28;20455;-58
2023/03/26 09:35:24;;;;;;;9.90;2.40;;;8.10;99.90;;;;;;5105990;28;20457;-49
2023/03/26 09:37:58;;;;;;;5.53;1.90;;;8.00;99.90;;;;;;5060727;28;20465;-50
2023/03/26 09:40:36;;;;;;;6.47;1.63;;;8.20;99.90;;;;;;5080000;28;20453;-50
2023/03/26 09:43:29;;;;;;;7.10;2.57;;;8.10;99.90;;;;;;5091895;28;20823;-51
2023/03/26 09:46:07;;;;;;;6.30;2.20;;;8.10;99.90;;;;;;5097222;28;20460;-51
2023/03/26 09:48:54;;;;;;;5.47;1.83;;;8.10;99.90;;;;;;5087279;28;20452;-50
2023/03/26 09:51:48;;;;;;;7.20;2.10;;;8.10;99.90;;;;;;5102908;28;20443;-51
2023/03/26 09:54:47;;;;;;;13.93;2.67;;;8.30;99.90;;;;;;5092318;28;20537;-51
2023/03/26 09:57:21;;;;;;;5.90;2.30;;;8.60;99.90;;;;;;5087391;28;20472;-50
2023/03/26 10:00:03;;;;;;;3.33;1.83;;;8.70;99.90;;;;;;5105549;28;20603;-50
2023/03/26 10:02:42;;;;;;;4.50;3.10;;;8.60;99.90;;;;;;5090306;28;20462;-50
2023/03/26 10:05:25;;;;;;;5.27;2.27;;;8.90;99.90;;;;;;5090625;28;20473;-51
2023/03/26 10:08:02;;;;;;;4.80;1.80;;;9.10;37.80;;;;;;5094221;28;20888;-50
2023/03/26 10:10:41;;;;;;;8.17;2.77;;;9.00;46.40;;;;;;5097574;28;20502;-51
2023/03/26 10:13:20;;;;;;;5.93;1.90;;;9.00;30.90;;;;;;5100999;28;20452;-49
2023/03/26 10:15:59;;;;;;;4.07;1.73;;;9.20;46.60;;;;;;5088058;28;20978;-51
2023/03/26 10:18:36;;;;;;;4.63;1.90;;;9.20;46.70;;;;;;5091944;28;20956;-50
2023/03/26 10:21:07;;;;;;;6.67;2.30;;;9.40;54.10;;;;;;5093049;28;20467;-50
2023/03/26 10:24:01;;;;;;;9.03;2.30;;;9.60;63.00;;;;;;5107590;28;20456;-50
2023/03/26 10:26:40;;;;;;;5.90;1.80;;;9.70;58.60;;;;;;5093379;28;20471;-50
2023/03/26 10:29:31;;;;;;;6.30;2.07;;;9.70;61.20;;;;;;5098553;28;20456;-50
2023/03/26 10:32:10;;;;;;;5.03;2.23;;;9.60;56.80;;;;;;5101338;28;21031;-50
2023/03/26 10:34:58;;;;;;;4.67;1.73;;;9.70;68.20;;;;;;5099363;28;20484;-50
2023/03/26 10:37:39;;;;;;;6.47;1.23;;;9.50;69.10;;;;;;5097864;28;20451;-51
2023/03/26 10:40:16;;;;;;;16.13;1.80;;;9.40;56.10;;;;;;5106657;28;20467;-50
2023/03/26 10:43:07;;;;;;;6.43;2.20;;;9.40;65.10;;;;;;5098735;28;21012;-51
2023/03/26 10:45:49;;;;;;;6.10;2.10;;;9.70;67.50;;;;;;5096237;28;20456;-51
2023/03/26 10:48:27;;;;;;;5.40;2.00;;;9.60;71.70;;;;;;5092689;28;20860;-50
2023/03/26 10:51:06;;;;;;;8.73;1.90;;;9.80;77.00;;;;;;5111712;28;20953;-51
2023/03/26 10:53:38;;;;;;;6.40;2.70;;;10.00;78.40;;;;;;5107281;28;20496;-51
2023/03/26 10:56:14;;;;;;;10.80;2.00;;;9.60;70.60;;;;;;5094956;28;20572;-51
2023/03/26 10:58:42;;;;;;;17.37;2.23;;;9.70;70.10;;;;;;5090519;28;20460;-51
2023/03/26 11:01:15;;;;;;;4.10;1.93;;;9.60;78.10;;;;;;5106958;28;20456;-51
2023/03/26 11:03:50;;;;;;;7.80;2.27;;;9.60;74.40;;;;;;5101980;28;20469;-51
2023/03/26 11:06:29;;;;;;;5.70;2.40;;;9.90;75.30;;;;;;5088000;28;20476;-51
2023/03/26 11:09:03;;;;;;;4.40;1.70;;;10.00;79.90;;;;;;5086438;28;20468;-51
2023/03/26 11:11:40;;;;;;;7.30;2.70;;;10.10;89.40;;;;;;5097419;28;20585;-50
2023/03/26 11:14:15;;;;;;;7.33;2.60;;;10.40;99.90;;;;;;5083690;28;20487;-50
2023/03/26 11:16:53;;;;;;;6.30;2.10;;;11.00;99.00;;;;;;5092659;28;20846;-50
2023/03/26 11:19:25;;;;;;;3.50;1.97;;;11.30;99.90;;;;;;5090653;28;20820;-50
2023/03/26 11:22:01;;;;;;;5.80;2.03;;;11.30;99.90;;;;;;5084748;28;20483;-50
2023/03/26 11:25:03;;;;;;;11.50;2.03;;;11.50;99.90;;;;;;5094018;28;20948;-50
2023/03/26 11:27:39;;;;;;;5.10;2.10;;;11.20;99.90;;;;;;5023011;28;20458;-51
2023/03/26 11:30:21;;;;;;;7.40;2.03;;;11.70;99.90;;;;;;5090168;28;20447;-50
2023/03/26 11:32:51;;;;;;;2.27;1.20;;;11.90;99.90;;;;;;5088739;28;20460;-50
2023/03/26 11:35:25;;;;;;;1.57;1.43;;;11.60;99.90;;;;;;5097188;28;20906;-50
2023/03/26 11:37:54;;;;;;;7.70;2.60;;;11.40;99.90;;;;;;5089134;28;20477;-50
2023/03/26 11:40:25;;;;;;;5.10;1.83;;;11.20;99.90;;;;;;5096051;28;20464;-50
2023/03/26 11:42:59;;;;;;;2.90;1.70;;;11.10;99.90;;;;;;5089915;28;20812;-50
2023/03/26 11:45:30;;;;;;;3.40;1.70;;;11.10;99.90;;;;;;5089670;28;20544;-50
2023/03/26 11:48:03;;;;;;;6.17;2.33;;;11.30;99.90;;;;;;5090666;28;20457;-49
2023/03/26 11:50:35;;;;;;;1.43;1.33;;;11.70;99.90;;;;;;5086679;28;20532;-49
2023/03/26 11:53:11;;;;;;;5.80;1.80;;;12.10;99.90;;;;;;5081221;28;20464;-51
2023/03/26 11:55:40;;;;;;;13.17;1.80;;;11.70;99.90;;;;;;5089146;28;20497;-49
2023/03/26 11:58:23;;;;;;;4.00;1.73;;;11.80;99.90;;;;;;5090267;28;20469;-50
2023/03/26 12:00:52;;;;;;;4.20;1.70;;;11.70;99.90;;;;;;5090317;28;20461;-51
2023/03/26 12:03:19;;;;;;;4.83;1.57;;;11.80;99.90;;;;;;5089192;28;20886;-50
2023/03/26 12:05:49;;;;;;;3.63;1.77;;;11.70;99.90;;;;;;5091590;28;20474;-50
2023/03/26 12:08:21;;;;;;;4.93;1.80;;;11.70;99.90;;;;;;5093867;28;20505;-50
2023/03/26 12:11:00;;;;;;;7.30;2.07;;;11.80;99.90;;;;;;5097679;28;20522;-49
2023/03/26 12:13:33;;;;;;;5.60;1.93;;;11.70;99.90;;;;;;5095670;28;20453;-50
2023/03/26 12:19:02;;;;;;;4.77;1.80;;;11.60;99.90;;;;;;5065027;28;20537;-50
2023/03/26 12:21:29;;;;;;;3.50;1.50;;;11.90;99.90;;;;;;5049692;28;20459;-51
2023/03/26 12:23:58;;;;;;;2.63;1.30;;;12.20;99.90;;;;;;5046212;28;20559;-50
2023/03/26 12:26:34;;;;;;;5.03;1.80;;;12.60;99.90;;;;;;5043456;28;20484;-50
2023/03/26 12:29:07;;;;;;;4.87;2.20;;;12.70;99.90;;;;;;5041474;28;20886;-50
2023/03/26 12:31:42;;;;;;;7.50;2.20;;;12.40;99.90;;;;;;5043483;28;20839;-50
2023/03/26 12:34:15;;;;;;;3.17;1.50;;;12.70;99.90;;;;;;5041403;28;20467;-50
2023/03/26 12:36:49;;;;;;;4.70;1.60;;;12.30;99.90;;;;;;5049959;28;20548;-50
2023/03/26 12:39:26;;;;;;;5.47;2.37;;;12.00;99.90;;;;;;5050574;28;20991;-50
2023/03/26 12:41:55;;;;;;;4.17;1.90;;;12.10;99.90;;;;;;5053599;28;20516;-50
2023/03/26 12:44:28;;;;;;;4.93;1.83;;;12.00;99.90;;;;;;5051300;22;20453;-57
2023/03/26 12:47:08;;;;;;;3.30;1.77;;;11.70;99.90;;;;;;5047460;28;20583;-56
2023/03/26 12:49:37;;;;;;;9.90;1.87;;;11.60;99.90;;;;;;5039903;28;20470;-56
2023/03/26 12:52:21;;;;;;;4.73;1.40;;;11.50;99.90;;;;;;5045452;28;20473;-57
2023/03/26 12:54:53;;;;;;;2.70;1.30;;;11.40;99.90;;;;;;5045951;28;20550;-56
2023/03/26 12:57:22;;;;;;;5.07;1.53;;;11.50;99.90;;;;;;5048048;28;20566;-58
2023/03/26 13:00:13;;;;;;;6.33;2.30;;;11.80;99.90;;;;;;5046215;28;20572;-50
2023/03/26 13:03:11;;;;;;;2.63;1.40;;;12.10;99.90;;;;;;5037909;28;20456;-52
2023/03/26 13:05:54;;;;;;;5.20;2.00;;;12.50;99.90;;;;;;5039349;28;20489;-51
2023/03/26 13:08:56;;;;;;;7.10;1.83;;;12.60;99.90;;;;;;5031908;28;20461;-51
2023/03/26 13:11:31;;;;;;;3.30;2.07;;;13.00;99.90;;;;;;5037734;28;20469;-51
2023/03/26 13:14:27;;;;;;;4.77;2.03;;;13.00;99.90;;;;;;5043834;28;21211;-51
2023/03/26 13:16:58;;;;;;;2.33;1.47;;;12.90;99.90;;;;;;5033536;28;20464;-51
2023/03/26 13:19:31;;;;;;;2.40;1.30;;;12.70;99.90;;;;;;5039434;28;20523;-51
2023/03/26 13:22:15;;;;;;;1.73;1.00;;;12.50;99.90;;;;;;5047872;28;20483;-51
2023/03/26 13:24:50;;;;;;;4.33;1.57;;;12.40;99.90;;;;;;5047188;28;20469;-50
2023/03/26 13:27:27;;;;;;;4.50;1.90;;;12.10;99.90;;;;;;5050128;28;20511;-53
2023/03/26 13:29:59;;;;;;;4.10;1.63;;;12.50;99.90;;;;;;5042913;28;20484;-53